Time;durP1;ratioP1;P1;durP2;ratioP2;P2;SDS_P1;SDS_P2;PMS_P1;PMS_P2;Temp;Humidity;BMP_temperature;BMP_pressure;BME280_temperature;BME280_humidity;BME280_pressure;Samples;Min_cycle;Max_cycle;Signal;HPM_P1;HPM_P2
2021/03/11 00:00:31;;;;;;;13.43;8.77;;;7.50;56.50;;;;;;5032096;28;20059;-64
2021/03/11 00:02:58;;;;;;;16.83;9.68;;;7.60;56.60;;;;;;5038317;28;20116;-64
2021/03/11 00:05:28;;;;;;;14.30;9.02;;;7.50;56.50;;;;;;5032390;28;20037;-64
2021/03/11 00:07:54;;;;;;;12.80;8.80;;;7.50;56.50;;;;;;5033590;28;20061;-63
2021/03/11 00:10:20;;;;;;;13.77;9.00;;;7.50;56.60;;;;;;5034773;28;20065;-64
2021/03/11 00:12:45;;;;;;;12.38;8.90;;;7.50;56.70;;;;;;5053240;28;20045;-63
2021/03/11 00:15:18;;;;;;;13.70;8.60;;;7.50;56.50;;;;;;5052875;28;20499;-64
2021/03/11 00:17:44;;;;;;;13.27;9.23;;;7.50;56.60;;;;;;5054241;28;20037;-64
2021/03/11 00:20:20;;;;;;;13.15;8.63;;;7.50;56.60;;;;;;5054596;28;20660;-64
2021/03/11 00:22:49;;;;;;;13.13;8.52;;;7.50;56.60;;;;;;5057384;28;20107;-64
2021/03/11 00:25:21;;;;;;;12.05;8.18;;;7.50;56.70;;;;;;5059015;28;20526;-64
2021/03/11 00:27:52;;;;;;;12.48;8.63;;;7.50;56.60;;;;;;5058478;28;20495;-63
2021/03/11 00:30:19;;;;;;;14.27;8.85;;;7.50;56.70;;;;;;5055780;28;20035;-64
2021/03/11 00:32:47;;;;;;;14.50;8.80;;;7.40;56.60;;;;;;5051697;28;20037;-64
2021/03/11 00:35:16;;;;;;;13.15;8.90;;;7.40;56.70;;;;;;5058371;28;20033;-64
2021/03/11 00:37:43;;;;;;;13.13;8.98;;;7.50;56.70;;;;;;5056267;28;20047;-63
2021/03/11 00:40:13;;;;;;;13.15;8.63;;;7.50;56.80;;;;;;5057881;28;20060;-64
2021/03/11 00:42:39;;;;;;;15.13;8.57;;;7.40;56.70;;;;;;5049691;28;20025;-64
2021/03/11 00:45:08;;;;;;;12.38;8.20;;;7.40;56.70;;;;;;5039659;28;20071;-64
2021/03/11 00:47:36;;;;;;;11.55;8.05;;;7.40;56.60;;;;;;5056540;28;20025;-64
2021/03/11 00:50:06;;;;;;;13.63;8.70;;;7.40;56.70;;;;;;5057016;28;20028;-64
2021/03/11 00:52:32;;;;;;;14.35;9.27;;;7.50;56.60;;;;;;5053919;28;20041;-64
2021/03/11 00:54:57;;;;;;;12.93;8.82;;;7.50;56.70;;;;;;5056633;28;20087;-64
2021/03/11 00:57:25;;;;;;;13.80;8.55;;;7.50;56.70;;;;;;5057037;28;20037;-63
2021/03/11 00:59:58;;;;;;;13.95;8.38;;;7.50;56.60;;;;;;5051170;28;20029;-64
2021/03/11 01:02:28;;;;;;;13.18;8.48;;;7.60;56.60;;;;;;5039532;28;20037;-64
2021/03/11 01:04:57;;;;;;;12.95;8.60;;;7.60;56.60;;;;;;5056450;28;20500;-65
2021/03/11 01:07:24;;;;;;;14.32;9.15;;;7.60;56.50;;;;;;5055510;28;20063;-64
2021/03/11 01:09:52;;;;;;;13.13;8.75;;;7.70;56.50;;;;;;5058150;28;20033;-64
2021/03/11 01:12:20;;;;;;;12.60;8.30;;;7.70;56.50;;;;;;5046073;28;20037;-64
2021/03/11 01:14:49;;;;;;;12.52;8.68;;;7.70;56.40;;;;;;5047644;28;20033;-64
2021/03/11 01:17:17;;;;;;;13.75;9.05;;;7.70;56.40;;;;;;5055521;28;20037;-64
2021/03/11 01:19:45;;;;;;;13.23;9.02;;;7.80;56.30;;;;;;5056178;28;20033;-64
2021/03/11 01:22:13;;;;;;;14.38;8.63;;;7.80;56.30;;;;;;5056704;28;20036;-64
2021/03/11 01:24:39;;;;;;;15.75;8.93;;;7.80;56.30;;;;;;5057647;28;20034;-64
2021/03/11 01:27:05;;;;;;;11.77;8.18;;;7.80;56.30;;;;;;5056782;28;20558;-64
2021/03/11 01:29:31;;;;;;;15.73;8.57;;;7.80;56.30;;;;;;5058358;28;20526;-64
2021/03/11 01:32:01;;;;;;;13.13;8.50;;;7.80;56.20;;;;;;5047888;28;20029;-64
2021/03/11 01:34:29;;;;;;;11.00;8.00;;;7.80;56.20;;;;;;5055555;28;20048;-63
2021/03/11 01:36:54;;;;;;;14.25;9.20;;;7.80;56.20;;;;;;5045998;28;20029;-64
2021/03/11 01:39:22;;;;;;;13.65;8.75;;;7.80;56.40;;;;;;5057023;28;20855;-63
2021/03/11 01:41:50;;;;;;;13.63;8.60;;;7.80;56.10;;;;;;5057773;28;20024;-63
2021/03/11 01:44:18;;;;;;;13.32;8.82;;;7.80;56.10;;;;;;5049532;28;20037;-64
2021/03/11 01:46:46;;;;;;;11.75;8.35;;;7.80;56.10;;;;;;5052249;28;20082;-64
2021/03/11 01:49:12;;;;;;;14.25;8.85;;;7.90;56.10;;;;;;5057711;28;20036;-64
2021/03/11 01:51:39;;;;;;;13.65;8.35;;;7.90;56.10;;;;;;5052443;28;20411;-65
2021/03/11 01:54:07;;;;;;;13.57;8.10;;;7.90;56.00;;;;;;5056011;28;20033;-64
2021/03/11 01:56:35;;;;;;;13.35;8.77;;;7.90;56.00;;;;;;5052461;28;20033;-64
2021/03/11 01:59:03;;;;;;;14.77;9.55;;;7.90;56.00;;;;;;5066179;28;20037;-64
2021/03/11 02:01:32;;;;;;;14.32;8.68;;;7.90;56.00;;;;;;5050275;28;20032;-64
2021/03/11 02:04:02;;;;;;;13.95;9.13;;;7.90;55.90;;;;;;5055484;28;20033;-64
2021/03/11 02:06:27;;;;;;;13.35;8.35;;;7.90;55.90;;;;;;5051327;28;20048;-64
2021/03/11 02:08:58;;;;;;;13.55;9.05;;;7.90;56.00;;;;;;5052095;28;20099;-64
2021/03/11 02:11:29;;;;;;;13.52;8.90;;;7.90;56.00;;;;;;5045014;28;20033;-64
2021/03/11 02:14:12;;;;;;;14.20;9.52;;;8.00;56.00;;;;;;5056331;28;20087;-64
2021/03/11 02:16:48;;;;;;;14.32;8.32;;;8.00;55.90;;;;;;5050115;28;20503;-64
2021/03/11 02:19:38;;;;;;;15.45;9.48;;;8.00;55.90;;;;;;5053981;28;20060;-64
2021/03/11 02:22:18;;;;;;;14.65;9.40;;;8.00;55.70;;;;;;5054196;28;20052;-64
2021/03/11 02:25:12;;;;;;;14.43;9.00;;;8.10;55.70;;;;;;5045125;28;20045;-64
2021/03/11 02:28:28;;;;;;;15.82;8.82;;;8.10;55.80;;;;;;5051448;28;20898;-64
2021/03/11 02:30:58;;;;;;;16.60;9.60;;;8.10;55.70;;;;;;5052162;28;20028;-64
2021/03/11 02:33:30;;;;;;;14.82;8.82;;;8.20;55.80;;;;;;5054999;28;20079;-65
2021/03/11 02:35:58;;;;;;;12.63;8.05;;;8.20;55.70;;;;;;5050973;28;20029;-64
2021/03/11 02:38:26;;;;;;;13.55;9.10;;;8.20;55.70;;;;;;5054598;28;20586;-64
2021/03/11 02:41:00;;;;;;;13.77;8.65;;;8.20;55.70;;;;;;5049095;28;20036;-64
2021/03/11 02:43:27;;;;;;;15.75;9.07;;;8.30;55.70;;;;;;5039147;28;20041;-64
2021/03/11 02:45:59;;;;;;;12.82;8.40;;;8.30;55.70;;;;;;5050478;28;20052;-64
2021/03/11 02:48:27;;;;;;;12.07;8.02;;;8.40;55.60;;;;;;5052015;28;20041;-64
2021/03/11 02:50:54;;;;;;;14.90;9.05;;;8.40;55.60;;;;;;5053254;28;20032;-64
2021/03/11 02:53:25;;;;;;;17.33;9.23;;;8.40;55.60;;;;;;5055043;28;20468;-64
2021/03/11 02:55:59;;;;;;;16.85;9.48;;;8.40;55.40;;;;;;5055155;28;20056;-63
2021/03/11 02:58:25;;;;;;;16.17;9.95;;;8.40;55.20;;;;;;5054659;28;20120;-64
2021/03/11 03:00:59;;;;;;;13.05;8.98;;;8.40;55.20;;;;;;5049951;28;20500;-64
2021/03/11 03:03:29;;;;;;;15.25;9.38;;;8.40;55.30;;;;;;5050710;28;20495;-64
2021/03/11 03:05:57;;;;;;;15.57;9.07;;;8.40;55.20;;;;;;5051353;28;20029;-64
2021/03/11 03:08:24;;;;;;;16.17;9.50;;;8.40;55.20;;;;;;5053903;28;20162;-64
2021/03/11 03:10:55;;;;;;;14.50;9.20;;;8.40;55.10;;;;;;5051175;28;20028;-64
2021/03/11 03:13:24;;;;;;;13.63;9.30;;;8.40;55.00;;;;;;5056293;28;20030;-64
2021/03/11 03:15:55;;;;;;;14.65;9.27;;;8.40;55.60;;;;;;5047976;28;20037;-64
2021/03/11 03:18:22;;;;;;;15.00;9.15;;;8.40;54.80;;;;;;5055718;28;20024;-64
2021/03/11 03:20:54;;;;;;;13.55;8.77;;;8.40;54.80;;;;;;5058909;28;20033;-64
2021/03/11 03:23:23;;;;;;;14.10;8.77;;;8.40;54.70;;;;;;5059331;28;20082;-65
2021/03/11 03:25:49;;;;;;;15.10;8.93;;;8.40;54.60;;;;;;5056407;28;20033;-63
2021/03/11 03:28:18;;;;;;;13.23;9.05;;;8.50;54.70;;;;;;5034633;28;20400;-64
2021/03/11 03:30:45;;;;;;;12.80;8.82;;;8.40;54.50;;;;;;5037175;28;20086;-64
2021/03/11 03:33:13;;;;;;;14.55;8.60;;;8.40;54.50;;;;;;5039737;28;20496;-64
2021/03/11 03:35:45;;;;;;;14.95;8.82;;;8.40;54.50;;;;;;5033836;28;20738;-64
2021/03/11 03:38:15;;;;;;;11.80;8.57;;;8.40;54.50;;;;;;5036955;28;20037;-64
2021/03/11 03:40:42;;;;;;;12.18;8.45;;;8.40;54.40;;;;;;5035882;28;20069;-64
2021/03/11 03:43:25;;;;;;;13.52;8.68;;;8.50;54.50;;;;;;5037517;28;20083;-65
2021/03/11 03:45:55;;;;;;;16.88;9.20;;;8.40;54.20;;;;;;5033769;28;20060;-63
2021/03/11 03:48:39;;;;;;;13.45;8.55;;;8.50;54.40;;;;;;5032436;28;20029;-64
2021/03/11 03:51:08;;;;;;;13.60;8.50;;;8.50;54.30;;;;;;5039253;28;20061;-64
2021/03/11 03:53:45;;;;;;;15.88;9.27;;;8.40;54.40;;;;;;5037879;28;20045;-64
2021/03/11 03:56:21;;;;;;;15.30;8.40;;;8.50;54.20;;;;;;5039516;28;20045;-65
2021/03/11 03:58:47;;;;;;;17.27;9.60;;;8.50;54.00;;;;;;5034921;28;20041;-64
2021/03/11 04:01:16;;;;;;;14.32;9.50;;;8.50;53.90;;;;;;5018317;28;20029;-64
2021/03/11 04:03:42;;;;;;;13.68;8.60;;;8.60;53.80;;;;;;5026516;28;20029;-64
2021/03/11 04:06:14;;;;;;;15.70;8.93;;;8.60;53.90;;;;;;5030076;28;20040;-64
2021/03/11 04:08:46;;;;;;;14.00;8.60;;;8.60;53.50;;;;;;5068517;28;20041;-64
2021/03/11 04:11:12;;;;;;;13.50;8.88;;;8.60;53.70;;;;;;5031424;28;20034;-65
2021/03/11 04:13:40;;;;;;;13.10;8.40;;;8.70;53.50;;;;;;5033263;28;20495;-65
2021/03/11 04:16:13;;;;;;;15.23;9.23;;;8.70;53.50;;;;;;5037529;28;20073;-64
2021/03/11 04:18:39;;;;;;;15.05;8.90;;;8.70;53.40;;;;;;5029468;28;20041;-64
2021/03/11 04:21:08;;;;;;;17.65;10.25;;;8.70;53.50;;;;;;5045968;28;20420;-64
2021/03/11 04:23:38;;;;;;;14.73;9.13;;;8.70;53.20;;;;;;5038161;28;20033;-63
2021/03/11 04:26:05;;;;;;;14.95;8.85;;;8.80;53.20;;;;;;5033921;28;20033;-64
2021/03/11 04:28:36;;;;;;;15.73;10.80;;;8.80;53.30;;;;;;5030919;28;20038;-64
2021/03/11 04:31:05;;;;;;;13.73;8.85;;;8.80;53.00;;;;;;5030801;28;20034;-64
2021/03/11 04:33:31;;;;;;;13.50;8.35;;;8.80;52.90;;;;;;5038088;28;20640;-64
2021/03/11 04:35:57;;;;;;;12.90;8.38;;;8.80;52.90;;;;;;5034717;28;20038;-64
2021/03/11 04:38:24;;;;;;;13.07;8.48;;;8.90;53.10;;;;;;5025271;28;20079;-64
2021/03/11 04:40:54;;;;;;;11.30;7.82;;;8.90;53.10;;;;;;5027398;28;20044;-64
2021/03/11 04:43:26;;;;;;;13.85;8.48;;;8.90;53.20;;;;;;5027890;28;20025;-64
2021/03/11 04:45:55;;;;;;;12.02;7.80;;;8.90;53.00;;;;;;5072326;28;20029;-65
2021/03/11 04:48:25;;;;;;;14.07;8.85;;;8.90;53.10;;;;;;5029377;28;20050;-62
2021/03/11 04:50:51;;;;;;;14.70;8.35;;;8.90;53.20;;;;;;5029187;28;20108;-64
2021/03/11 04:53:21;;;;;;;14.27;8.48;;;9.00;53.10;;;;;;5029858;28;20072;-63
2021/03/11 04:55:48;;;;;;;12.05;7.75;;;9.00;53.10;;;;;;5035188;28;20045;-64
2021/03/11 04:58:16;;;;;;;14.13;9.30;;;9.00;53.10;;;;;;5032531;28;20060;-64
2021/03/11 05:00:46;;;;;;;18.83;11.05;;;9.00;53.00;;;;;;5038055;28;20048;-64
2021/03/11 05:03:13;;;;;;;13.45;8.85;;;9.10;52.90;;;;;;5042617;28;20060;-65
2021/03/11 05:05:42;;;;;;;13.40;8.77;;;9.10;53.00;;;;;;5027019;28;20091;-64
2021/03/11 05:08:11;;;;;;;13.05;7.90;;;9.10;53.00;;;;;;5026061;28;20099;-65
2021/03/11 05:10:40;;;;;;;13.77;9.10;;;9.20;53.50;;;;;;5023425;28;20037;-63
2021/03/11 05:13:08;;;;;;;12.55;8.18;;;9.20;53.00;;;;;;5030444;28;20029;-64
2021/03/11 05:15:39;;;;;;;12.52;7.97;;;9.20;52.90;;;;;;5029500;28;20036;-64
2021/03/11 05:18:05;;;;;;;13.80;8.20;;;9.20;52.90;;;;;;5033340;28;20033;-64
2021/03/11 05:20:30;;;;;;;14.60;8.70;;;9.30;53.10;;;;;;5034620;28;20095;-64
2021/03/11 05:22:58;;;;;;;16.50;9.95;;;9.30;53.10;;;;;;5037409;28;20071;-64
2021/03/11 05:25:28;;;;;;;15.35;9.80;;;9.30;53.00;;;;;;5036231;28;20063;-65
2021/03/11 05:27:56;;;;;;;14.55;9.13;;;9.30;53.70;;;;;;5033060;28;20152;-64
2021/03/11 05:30:24;;;;;;;13.75;8.43;;;9.30;53.00;;;;;;5033651;28;20560;-64
2021/03/11 05:32:50;;;;;;;13.77;8.20;;;9.30;53.00;;;;;;5028611;28;20034;-64
2021/03/11 05:35:16;;;;;;;15.95;8.02;;;9.30;52.90;;;;;;5024722;28;20037;-65
2021/03/11 05:37:46;;;;;;;11.20;7.35;;;9.40;53.00;;;;;;5025544;28;20053;-64
2021/03/11 05:40:12;;;;;;;15.85;7.65;;;9.40;52.80;;;;;;5033987;28;20037;-63
2021/03/11 05:42:43;;;;;;;13.55;7.75;;;9.40;52.90;;;;;;5031484;28;20025;-64
2021/03/11 05:45:13;;;;;;;11.43;7.60;;;9.40;53.00;;;;;;5037813;28;20041;-63
2021/03/11 05:47:43;;;;;;;13.82;7.75;;;9.40;52.70;;;;;;5035202;28;20029;-65
2021/03/11 05:50:15;;;;;;;11.75;7.50;;;9.40;52.90;;;;;;5036639;28;20041;-65
2021/03/11 05:52:46;;;;;;;12.82;7.22;;;9.40;53.10;;;;;;5067890;28;20041;-65
2021/03/11 05:55:14;;;;;;;11.65;7.22;;;9.40;53.60;;;;;;5068149;28;20507;-65
2021/03/11 05:57:43;;;;;;;10.48;6.95;;;9.40;53.90;;;;;;5034964;28;20124;-65
2021/03/11 06:00:12;;;;;;;10.63;6.97;;;9.40;54.00;;;;;;5037440;28;20049;-65
2021/03/11 06:02:41;;;;;;;13.27;7.28;;;9.40;54.10;;;;;;5027841;28;20033;-64
2021/03/11 06:05:14;;;;;;;11.52;6.93;;;9.40;54.00;;;;;;5032213;28;20069;-65
2021/03/11 06:07:48;;;;;;;9.52;6.97;;;9.40;54.00;;;;;;5036174;28;20033;-65
2021/03/11 06:10:24;;;;;;;12.15;6.88;;;9.40;54.00;;;;;;5035475;28;20030;-65
2021/03/11 06:12:55;;;;;;;8.85;6.20;;;9.40;54.00;;;;;;5054908;28;20032;-65
2021/03/11 06:15:36;;;;;;;13.35;6.22;;;9.40;54.20;;;;;;5057170;28;20064;-65
2021/03/11 06:18:11;;;;;;;11.70;6.47;;;9.40;54.40;;;;;;5054189;28;20084;-64
2021/03/11 06:20:41;;;;;;;10.45;5.43;;;9.50;55.00;;;;;;5057211;28;20040;-64
2021/03/11 06:23:09;;;;;;;11.48;5.72;;;9.50;55.20;;;;;;5055879;28;20029;-65
2021/03/11 06:25:38;;;;;;;8.20;5.63;;;9.50;55.80;;;;;;5057218;28;20032;-64
2021/03/11 06:28:04;;;;;;;11.95;5.45;;;9.60;56.10;;;;;;5057113;28;20435;-65
2021/03/11 06:30:35;;;;;;;7.80;5.30;;;9.60;56.30;;;;;;5055120;28;20025;-65
2021/03/11 06:33:05;;;;;;;10.70;5.70;;;9.60;56.60;;;;;;5058349;28;20461;-65
2021/03/11 06:35:34;;;;;;;13.07;5.63;;;9.70;56.70;;;;;;5057779;28;20036;-64
2021/03/11 06:38:04;;;;;;;10.38;5.10;;;9.70;57.00;;;;;;5057527;28;20516;-63
2021/03/11 06:40:33;;;;;;;10.68;5.68;;;9.70;57.20;;;;;;5056932;28;20079;-65
2021/03/11 06:43:13;;;;;;;11.70;5.07;;;9.70;57.50;;;;;;5058032;28;20040;-65
2021/03/11 06:45:43;;;;;;;8.30;4.90;;;9.70;58.00;;;;;;5071505;28;20048;-65
2021/03/11 06:48:38;;;;;;;9.52;5.53;;;9.70;58.10;;;;;;5056735;28;20029;-65
2021/03/11 06:51:23;;;;;;;10.80;4.47;;;9.80;58.60;;;;;;5052021;28;20041;-65
2021/03/11 06:53:55;;;;;;;7.70;4.80;;;9.80;58.50;;;;;;5056235;28;20110;-64
2021/03/11 06:56:22;;;;;;;15.88;4.05;;;9.80;58.60;;;;;;5053691;28;20035;-65
2021/03/11 06:58:58;;;;;;;6.85;4.53;;;9.80;58.70;;;;;;5056459;28;20116;-64
2021/03/11 07:01:27;;;;;;;6.70;4.25;;;9.90;59.00;;;;;;5052636;28;20033;-64
2021/03/11 07:03:58;;;;;;;7.90;3.90;;;9.90;58.90;;;;;;5053064;28;20426;-65
2021/03/11 07:06:31;;;;;;;7.35;4.80;;;9.90;59.00;;;;;;5053938;28;20037;-64
2021/03/11 07:08:58;;;;;;;8.30;5.03;;;9.90;58.90;;;;;;5056846;28;20033;-64
2021/03/11 07:11:29;;;;;;;7.78;5.20;;;10.00;59.10;;;;;;5046933;28;20060;-65
2021/03/11 07:14:03;;;;;;;8.65;5.38;;;10.00;59.00;;;;;;5055359;28;20025;-65
2021/03/11 07:16:34;;;;;;;7.07;4.47;;;10.00;59.10;;;;;;5039110;28;20741;-65
2021/03/11 07:19:14;;;;;;;7.05;4.20;;;10.00;59.00;;;;;;5040487;28;20119;-64
2021/03/11 07:21:46;;;;;;;7.97;5.60;;;10.10;59.30;;;;;;5055311;28;20066;-65
2021/03/11 07:24:32;;;;;;;8.40;5.40;;;10.10;59.00;;;;;;5039190;28;20033;-65
2021/03/11 07:27:02;;;;;;;5.88;3.45;;;10.10;59.00;;;;;;5036094;28;20535;-65
2021/03/11 07:29:31;;;;;;;5.47;3.65;;;10.10;59.00;;;;;;5035008;28;20036;-64
2021/03/11 07:32:01;;;;;;;5.20;3.78;;;10.20;59.00;;;;;;5035593;28;20033;-64
2021/03/11 07:34:33;;;;;;;6.05;3.90;;;10.20;58.90;;;;;;5033478;28;20033;-65
2021/03/11 07:37:00;;;;;;;6.25;3.97;;;10.20;59.00;;;;;;5034152;28;20036;-65
2021/03/11 07:39:49;;;;;;;4.82;3.97;;;10.20;58.80;;;;;;5035141;28;20028;-65
2021/03/11 07:42:21;;;;;;;6.38;3.53;;;10.20;58.80;;;;;;5035951;28;20037;-65
2021/03/11 07:44:49;;;;;;;6.55;3.95;;;10.20;58.60;;;;;;5055314;28;20033;-65
2021/03/11 07:47:14;;;;;;;6.38;4.13;;;10.30;58.70;;;;;;5048395;28;20033;-65
2021/03/11 07:49:43;;;;;;;6.57;3.80;;;10.30;58.60;;;;;;5045303;28;20055;-65
2021/03/11 07:52:08;;;;;;;6.63;3.47;;;10.30;58.60;;;;;;5055288;28;20030;-65
2021/03/11 07:54:39;;;;;;;4.82;3.20;;;10.30;58.60;;;;;;5055469;28;20033;-65
2021/03/11 07:57:07;;;;;;;5.40;3.40;;;10.30;58.50;;;;;;5056458;28;20522;-65
2021/03/11 07:59:45;;;;;;;4.35;3.33;;;10.40;58.50;;;;;;5056788;28;20459;-65
2021/03/11 08:02:16;;;;;;;5.05;3.30;;;10.40;58.60;;;;;;5044588;28;20213;-64
2021/03/11 08:04:46;;;;;;;3.80;3.20;;;10.40;58.50;;;;;;5056114;28;20032;-64
2021/03/11 08:07:25;;;;;;;5.38;3.15;;;10.40;58.50;;;;;;5057783;28;20029;-65
2021/03/11 08:09:56;;;;;;;5.90;3.55;;;10.50;58.60;;;;;;5056993;28;20033;-64
2021/03/11 08:12:29;;;;;;;4.85;3.17;;;10.50;58.40;;;;;;5054281;28;20041;-65
2021/03/11 08:14:58;;;;;;;6.53;2.97;;;10.50;58.40;;;;;;5054256;28;20962;-64
2021/03/11 08:17:33;;;;;;;5.25;3.42;;;10.60;58.30;;;;;;5057868;28;20037;-65
2021/03/11 08:19:59;;;;;;;7.10;3.38;;;10.60;58.30;;;;;;5059229;28;20037;-65
2021/03/11 08:22:50;;;;;;;10.40;2.95;;;10.60;58.20;;;;;;5058975;28;20033;-65
2021/03/11 08:25:41;;;;;;;4.63;3.03;;;10.70;58.10;;;;;;5059617;28;20036;-64
2021/03/11 08:28:09;;;;;;;11.05;3.28;;;10.70;58.00;;;;;;5058225;28;20033;-65
2021/03/11 08:30:46;;;;;;;6.90;3.30;;;10.80;57.90;;;;;;5041105;28;20039;-65
2021/03/11 08:33:34;;;;;;;3.72;2.75;;;10.80;57.70;;;;;;5058894;28;20033;-64
2021/03/11 08:36:03;;;;;;;4.80;3.13;;;10.90;57.60;;;;;;5057347;28;20036;-64
2021/03/11 08:38:32;;;;;;;6.18;3.05;;;11.00;57.50;;;;;;5058048;28;20105;-64
2021/03/11 08:41:07;;;;;;;4.70;2.78;;;11.00;57.50;;;;;;5058903;28;20025;-64
2021/03/11 08:43:38;;;;;;;4.50;3.22;;;11.10;57.40;;;;;;5058736;28;20033;-64
2021/03/11 08:46:16;;;;;;;4.18;3.22;;;11.10;57.20;;;;;;5057843;28;20045;-65
2021/03/11 08:48:49;;;;;;;4.13;2.83;;;11.10;57.00;;;;;;5055956;28;20064;-65
2021/03/11 08:51:17;;;;;;;4.85;2.90;;;11.20;57.00;;;;;;5057597;28;20575;-64
2021/03/11 08:53:59;;;;;;;5.30;2.95;;;11.30;57.10;;;;;;5042661;28;20389;-65
2021/03/11 08:56:32;;;;;;;5.90;2.95;;;11.30;56.80;;;;;;5057700;28;20036;-64
2021/03/11 08:59:07;;;;;;;4.72;3.08;;;11.40;56.70;;;;;;5057196;28;20111;-65
2021/03/11 09:01:44;;;;;;;6.10;3.13;;;11.50;56.70;;;;;;5055381;28;20028;-65
2021/03/11 09:04:29;;;;;;;7.22;2.90;;;11.50;56.50;;;;;;5057620;28;20102;-65
2021/03/11 09:07:13;;;;;;;4.67;3.03;;;11.60;55.70;;;;;;5053944;28;20033;-64
2021/03/11 09:09:54;;;;;;;5.35;3.10;;;11.60;55.70;;;;;;5057862;28;20287;-65
2021/03/11 09:12:33;;;;;;;9.40;3.08;;;11.70;55.60;;;;;;5054936;28;20599;-65
2021/03/11 09:15:02;;;;;;;4.10;2.90;;;11.80;55.50;;;;;;5054432;28;20045;-65
2021/03/11 09:17:34;;;;;;;5.30;2.78;;;11.90;55.50;;;;;;5056018;28;20025;-64
2021/03/11 09:20:06;;;;;;;3.13;2.78;;;12.00;55.20;;;;;;5058809;28;20423;-65
2021/03/11 09:22:41;;;;;;;6.78;3.50;;;12.00;55.00;;;;;;5053565;28;20438;-64
2021/03/11 09:25:17;;;;;;;;;;;12.10;54.70;;;;;;5041282;28;20040;-65
2021/03/11 09:28:00;;;;;;;6.55;2.92;;;12.20;54.50;;;;;;5058286;28;19951;-65
2021/03/11 09:30:35;;;;;;;5.68;3.17;;;12.30;54.50;;;;;;5056225;28;20040;-65
2021/03/11 09:33:17;;;;;;;9.75;3.00;;;12.30;54.40;;;;;;5056937;28;20029;-65
2021/03/11 09:35:43;;;;;;;5.03;2.45;;;12.40;54.00;;;;;;5058197;28;20041;-64
2021/03/11 09:38:19;;;;;;;7.70;3.00;;;12.50;54.40;;;;;;5057668;28;20064;-65
2021/03/11 09:40:51;;;;;;;11.57;2.90;;;12.60;54.10;;;;;;5056905;28;20060;-65
2021/03/11 09:43:23;;;;;;;4.85;3.05;;;12.60;53.90;;;;;;5058119;28;20037;-65
2021/03/11 09:46:00;;;;;;;4.72;2.90;;;12.70;53.90;;;;;;5055390;28;20068;-64
2021/03/11 09:48:53;;;;;;;7.05;3.15;;;12.80;53.60;;;;;;5056269;28;20097;-65
2021/03/11 09:51:28;;;;;;;7.47;2.80;;;12.90;53.60;;;;;;5052478;28;20017;-65
2021/03/11 09:54:03;;;;;;;4.03;2.78;;;12.90;53.10;;;;;;5055995;28;20492;-64
2021/03/11 09:56:44;;;;;;;7.10;3.70;;;13.00;52.60;;;;;;5053060;28;20475;-65
2021/03/11 09:59:14;;;;;;;9.52;6.07;;;13.10;52.20;;;;;;5054717;28;20408;-65
2021/03/11 10:01:45;;;;;;;7.70;3.40;;;13.10;52.30;;;;;;5053786;28;20380;-65
2021/03/11 10:04:18;;;;;;;9.55;3.20;;;13.20;52.50;;;;;;5056757;28;20041;-65
2021/03/11 10:06:57;;;;;;;10.15;3.00;;;13.20;52.20;;;;;;5056912;28;20037;-65
2021/03/11 10:09:25;;;;;;;8.38;2.70;;;13.30;51.80;;;;;;5056934;28;20041;-65
2021/03/11 10:11:55;;;;;;;6.47;2.45;;;13.40;51.80;;;;;;5051951;28;20094;-64
2021/03/11 10:14:26;;;;;;;3.75;2.53;;;13.50;52.00;;;;;;5053560;28;20028;-65
2021/03/11 10:16:54;;;;;;;6.70;2.42;;;13.50;51.70;;;;;;5040018;28;20045;-65
2021/03/11 10:19:24;;;;;;;5.50;2.38;;;13.60;51.90;;;;;;5057546;28;20167;-65
2021/03/11 10:22:10;;;;;;;3.47;2.42;;;13.70;51.90;;;;;;5056628;28;20028;-65
2021/03/11 10:24:42;;;;;;;7.88;2.80;;;13.80;51.40;;;;;;5054009;28;20032;-65
2021/03/11 10:27:34;;;;;;;6.60;2.38;;;13.90;51.30;;;;;;5053134;28;20029;-65
2021/03/11 10:30:09;;;;;;;5.22;2.08;;;14.00;51.40;;;;;;5054971;28;20036;-65
2021/03/11 10:32:38;;;;;;;10.13;2.00;;;14.10;51.50;;;;;;5056286;28;20033;-65
2021/03/11 10:35:10;;;;;;;3.35;2.03;;;14.20;51.80;;;;;;5056783;28;20029;-65
2021/03/11 10:37:42;;;;;;;3.67;1.80;;;14.30;51.60;;;;;;5055971;28;20033;-65
2021/03/11 10:40:12;;;;;;;4.53;1.65;;;14.30;51.70;;;;;;5056263;28;20111;-65
2021/03/11 10:42:49;;;;;;;7.50;2.00;;;14.40;51.60;;;;;;5054817;28;20028;-65
2021/03/11 10:45:20;;;;;;;9.15;4.22;;;14.50;51.30;;;;;;5057191;28;20518;-65
2021/03/11 10:48:17;;;;;;;4.20;1.90;;;14.50;51.40;;;;;;5054222;28;20041;-65
2021/03/11 10:50:49;;;;;;;6.70;2.25;;;14.60;51.40;;;;;;5052066;28;20040;-65
2021/03/11 10:53:19;;;;;;;3.35;1.70;;;14.70;51.50;;;;;;5056405;28;20029;-65
2021/03/11 10:55:53;;;;;;;7.55;1.60;;;14.70;51.60;;;;;;5055761;28;20040;-64
2021/03/11 10:58:19;;;;;;;2.15;1.40;;;14.80;51.60;;;;;;5056981;28;20024;-64
2021/03/11 11:00:45;;;;;;;2.95;1.60;;;14.90;52.40;;;;;;5052847;28;20025;-63
2021/03/11 11:03:13;;;;;;;3.25;1.50;;;14.90;52.00;;;;;;5050487;28;20527;-65
2021/03/11 11:05:39;;;;;;;2.35;1.40;;;15.00;52.00;;;;;;5056973;28;20094;-65
2021/03/11 11:08:08;;;;;;;6.75;1.50;;;15.10;51.90;;;;;;5056137;28;20033;-65
2021/03/11 11:10:34;;;;;;;5.88;1.67;;;15.20;51.70;;;;;;5051302;28;20614;-65
2021/03/11 11:13:00;;;;;;;2.83;1.40;;;15.30;51.50;;;;;;5056258;28;20033;-65
2021/03/11 11:15:31;;;;;;;6.15;1.95;;;15.30;51.30;;;;;;5055849;28;20438;-65
2021/03/11 11:18:00;;;;;;;3.15;2.38;;;15.40;51.20;;;;;;5056755;28;20025;-65
2021/03/11 11:20:30;;;;;;;3.13;1.42;;;15.40;51.40;;;;;;5054434;28;20039;-65
2021/03/11 11:22:58;;;;;;;6.47;1.30;;;15.50;51.30;;;;;;5057097;28;20033;-65
2021/03/11 11:25:25;;;;;;;3.35;1.20;;;15.50;51.40;;;;;;5056358;28;20037;-65
2021/03/11 11:27:51;;;;;;;5.32;1.38;;;15.60;51.50;;;;;;5056296;28;20120;-65
2021/03/11 11:30:17;;;;;;;4.47;1.20;;;15.70;51.50;;;;;;5056124;28;20121;-64
2021/03/11 11:32:43;;;;;;;2.10;1.25;;;15.70;51.40;;;;;;5056264;28;20039;-65
2021/03/11 11:35:14;;;;;;;8.00;1.42;;;15.80;51.30;;;;;;5055493;28;20116;-65
2021/03/11 11:37:44;;;;;;;4.30;1.13;;;15.80;51.70;;;;;;5056268;28;20041;-65
2021/03/11 11:40:11;;;;;;;1.50;1.10;;;15.90;51.20;;;;;;5059639;28;20036;-65
2021/03/11 11:42:42;;;;;;;2.55;1.13;;;15.90;51.30;;;;;;5058711;28;20045;-65
2021/03/11 11:45:14;;;;;;;4.05;1.20;;;16.00;51.50;;;;;;5056342;28;20029;-65
2021/03/11 11:47:46;;;;;;;1.85;1.00;;;16.00;51.40;;;;;;5056561;28;22196;-65
2021/03/11 11:50:12;;;;;;;2.45;0.88;;;16.00;51.30;;;;;;5059510;28;20399;-64
2021/03/11 11:52:41;;;;;;;5.80;0.82;;;16.10;51.60;;;;;;5056085;28;20033;-65
2021/03/11 11:55:11;;;;;;;0.68;0.68;;;16.10;51.60;;;;;;5059669;28;20503;-65
2021/03/11 11:57:38;;;;;;;3.20;0.70;;;16.10;51.70;;;;;;5060326;28;20033;-65
2021/03/11 12:00:10;;;;;;;1.38;0.60;;;16.20;51.80;;;;;;5059197;28;20057;-65
2021/03/11 12:02:36;;;;;;;1.02;0.63;;;16.20;51.80;;;;;;5043228;28;20057;-65
2021/03/11 12:05:07;;;;;;;4.35;0.75;;;16.20;51.90;;;;;;5059756;28;20041;-65
2021/03/11 12:07:35;;;;;;;0.95;0.60;;;16.10;51.90;;;;;;5060723;28;20033;-65
2021/03/11 12:10:07;;;;;;;4.57;0.80;;;16.20;52.00;;;;;;5058307;28;20116;-65
2021/03/11 12:12:38;;;;;;;2.17;1.10;;;16.20;52.00;;;;;;5053654;28;20499;-65
2021/03/11 12:15:07;;;;;;;4.57;1.00;;;16.10;52.10;;;;;;5058723;28;20131;-65
2021/03/11 12:17:35;;;;;;;1.30;0.75;;;16.10;52.00;;;;;;5058847;28;20033;-65
2021/03/11 12:20:04;;;;;;;1.23;0.70;;;16.10;52.10;;;;;;5058269;28;20050;-65
2021/03/11 12:22:36;;;;;;;0.57;0.50;;;16.10;52.10;;;;;;5059785;28;20040;-65
2021/03/11 12:25:05;;;;;;;1.88;0.50;;;16.10;52.10;;;;;;5059613;28;20033;-65
2021/03/11 12:27:31;;;;;;;1.35;0.60;;;16.10;52.00;;;;;;5060188;28;20037;-65
2021/03/11 12:29:59;;;;;;;2.35;0.82;;;16.10;52.20;;;;;;5059269;28;20474;-65
2021/03/11 12:32:27;;;;;;;4.32;0.70;;;16.10;52.30;;;;;;5059382;28;20116;-65
2021/03/11 12:34:55;;;;;;;0.65;0.65;;;16.10;52.20;;;;;;5059823;28;20082;-65
2021/03/11 12:37:23;;;;;;;3.83;0.57;;;16.10;52.40;;;;;;5053706;28;20590;-65
2021/03/11 12:39:49;;;;;;;0.60;0.50;;;16.10;52.50;;;;;;5059547;28;20446;-65
2021/03/11 12:42:17;;;;;;;3.58;0.60;;;16.10;52.50;;;;;;5041388;28;20044;-65
2021/03/11 12:44:47;;;;;;;1.60;0.50;;;16.10;52.50;;;;;;5058462;28;20033;-66
2021/03/11 12:47:16;;;;;;;1.83;0.57;;;16.10;52.50;;;;;;5059238;28;20081;-65
2021/03/11 12:49:41;;;;;;;2.72;0.40;;;16.10;52.50;;;;;;5058291;28;20068;-65
2021/03/11 12:52:07;;;;;;;1.42;0.95;;;16.00;52.60;;;;;;5054648;28;20053;-65
2021/03/11 12:54:36;;;;;;;1.90;1.15;;;16.00;52.50;;;;;;5056521;28;20032;-65
2021/03/11 12:57:02;;;;;;;1.35;0.63;;;16.00;52.60;;;;;;5055247;28;20033;-65
2021/03/11 12:59:29;;;;;;;2.50;0.55;;;16.00;52.60;;;;;;5047957;28;20108;-65
2021/03/11 13:01:55;;;;;;;0.90;0.45;;;16.00;52.60;;;;;;5036746;28;20037;-65
2021/03/11 13:04:23;;;;;;;2.20;0.50;;;16.00;52.60;;;;;;5036174;28;20040;-65
2021/03/11 13:06:50;;;;;;;5.85;0.50;;;16.00;52.70;;;;;;5036838;28;20441;-65